sensor_id;sensor_type;location;lat;lon;timestamp;pressure;altitude;pressure_sealevel;temperature;humidity
22031;BME280;11179;52.106;21.024;2022-08-21T00:01:56;100054.06;;;21.26;59.40
22031;BME280;11179;52.106;21.024;2022-08-21T00:04:22;100052.50;;;21.16;59.23
22031;BME280;11179;52.106;21.024;2022-08-21T00:06:52;100049.41;;;21.09;59.73
22031;BME280;11179;52.106;21.024;2022-08-21T00:09:18;100053.88;;;21.01;59.69
22031;BME280;11179;52.106;21.024;2022-08-21T00:11:45;100050.44;;;20.96;60.16
22031;BME280;11179;52.106;21.024;2022-08-21T00:14:14;100048.03;;;20.86;60.40
22031;BME280;11179;52.106;21.024;2022-08-21T00:16:40;100046.56;;;20.80;60.67
22031;BME280;11179;52.106;21.024;2022-08-21T00:19:06;100045.44;;;20.72;60.88
22031;BME280;11179;52.106;21.024;2022-08-21T00:21:33;100045.13;;;20.65;61.04
22031;BME280;11179;52.106;21.024;2022-08-21T00:23:59;100040.41;;;20.57;61.32
22031;BME280;11179;52.106;21.024;2022-08-21T00:26:25;100040.09;;;20.50;61.79
22031;BME280;11179;52.106;21.024;2022-08-21T00:28:51;100036.13;;;20.51;61.72
22031;BME280;11179;52.106;21.024;2022-08-21T00:31:17;100041.25;;;20.49;61.85
22031;BME280;11179;52.106;21.024;2022-08-21T00:33:43;100045.69;;;20.50;61.84
22031;BME280;11179;52.106;21.024;2022-08-21T00:36:08;100045.84;;;20.45;62.21
22031;BME280;11179;52.106;21.024;2022-08-21T00:38:34;100034.53;;;20.41;62.21
22031;BME280;11179;52.106;21.024;2022-08-21T00:41:04;100036.16;;;20.42;62.19
22031;BME280;11179;52.106;21.024;2022-08-21T00:43:33;100033.56;;;20.37;61.91
22031;BME280;11179;52.106;21.024;2022-08-21T00:46:00;100029.63;;;20.29;62.40
22031;BME280;11179;52.106;21.024;2022-08-21T00:48:26;100028.50;;;20.30;62.38
22031;BME280;11179;52.106;21.024;2022-08-21T00:51:04;100024.56;;;20.31;62.43
22031;BME280;11179;52.106;21.024;2022-08-21T00:53:31;100023.75;;;20.31;62.33
22031;BME280;11179;52.106;21.024;2022-08-21T00:55:58;100024.56;;;20.31;62.40
22031;BME280;11179;52.106;21.024;2022-08-21T00:58:26;100025.53;;;20.27;62.58
22031;BME280;11179;52.106;21.024;2022-08-21T01:00:52;100021.94;;;20.26;62.68
22031;BME280;11179;52.106;21.024;2022-08-21T01:03:21;100023.28;;;20.20;62.88
22031;BME280;11179;52.106;21.024;2022-08-21T01:05:47;100013.44;;;20.14;62.94
22031;BME280;11179;52.106;21.024;2022-08-21T01:08:16;100015.72;;;20.12;63.03
22031;BME280;11179;52.106;21.024;2022-08-21T01:10:42;100008.50;;;20.11;63.15
22031;BME280;11179;52.106;21.024;2022-08-21T01:13:10;100022.44;;;20.11;63.23
22031;BME280;11179;52.106;21.024;2022-08-21T01:15:40;100027.88;;;20.08;63.42
22031;BME280;11179;52.106;21.024;2022-08-21T01:18:09;100028.53;;;20.04;63.14
22031;BME280;11179;52.106;21.024;2022-08-21T01:20:37;100023.63;;;20.01;63.63
22031;BME280;11179;52.106;21.024;2022-08-21T01:23:04;100024.44;;;19.93;63.65
22031;BME280;11179;52.106;21.024;2022-08-21T01:25:31;100025.91;;;19.91;63.89
22031;BME280;11179;52.106;21.024;2022-08-21T01:27:59;100023.25;;;19.86;64.17
22031;BME280;11179;52.106;21.024;2022-08-21T01:30:27;100019.84;;;19.80;64.22
22031;BME280;11179;52.106;21.024;2022-08-21T01:32:53;100019.19;;;19.75;64.35
22031;BME280;11179;52.106;21.024;2022-08-21T01:35:20;100013.44;;;19.71;64.53
22031;BME280;11179;52.106;21.024;2022-08-21T01:37:46;100011.00;;;19.69;64.63
22031;BME280;11179;52.106;21.024;2022-08-21T01:40:13;100003.47;;;19.70;64.41
22031;BME280;11179;52.106;21.024;2022-08-21T01:42:41;100009.19;;;19.74;64.52
22031;BME280;11179;52.106;21.024;2022-08-21T01:45:07;100002.63;;;19.78;64.43
22031;BME280;11179;52.106;21.024;2022-08-21T01:47:33;100002.31;;;19.80;64.29
22031;BME280;11179;52.106;21.024;2022-08-21T01:49:58;100002.31;;;19.80;64.46
22031;BME280;11179;52.106;21.024;2022-08-21T01:52:23;99998.22;;;19.77;64.50
22031;BME280;11179;52.106;21.024;2022-08-21T01:54:49;99993.47;;;19.78;64.46
22031;BME280;11179;52.106;21.024;2022-08-21T01:57:14;99980.50;;;19.73;64.71
22031;BME280;11179;52.106;21.024;2022-08-21T01:59:40;99987.72;;;19.74;64.66
22031;BME280;11179;52.106;21.024;2022-08-21T02:02:06;99990.34;;;19.70;64.73
22031;BME280;11179;52.106;21.024;2022-08-21T02:04:32;99985.78;;;19.66;64.58
22031;BME280;11179;52.106;21.024;2022-08-21T02:06:59;99985.59;;;19.62;64.67
22031;BME280;11179;52.106;21.024;2022-08-21T02:09:25;99983.78;;;19.58;64.98
22031;BME280;11179;52.106;21.024;2022-08-21T02:11:50;99987.25;;;19.55;65.11
22031;BME280;11179;52.106;21.024;2022-08-21T02:14:17;99987.56;;;19.53;65.28
22031;BME280;11179;52.106;21.024;2022-08-21T02:16:44;99982.66;;;19.50;65.07
22031;BME280;11179;52.106;21.024;2022-08-21T02:19:11;99985.13;;;19.52;65.10
22031;BME280;11179;52.106;21.024;2022-08-21T02:21:37;99985.13;;;19.52;65.25
22031;BME280;11179;52.106;21.024;2022-08-21T02:24:03;99983.63;;;19.46;65.44
22031;BME280;11179;52.106;21.024;2022-08-21T02:26:28;99991.00;;;19.42;65.38
22031;BME280;11179;52.106;21.024;2022-08-21T02:28:54;99981.03;;;19.41;65.83
22031;BME280;11179;52.106;21.024;2022-08-21T02:31:19;99981.34;;;19.39;65.55
22031;BME280;11179;52.106;21.024;2022-08-21T02:33:44;99981.16;;;19.36;65.83
22031;BME280;11179;52.106;21.024;2022-08-21T02:36:11;99984.13;;;19.30;65.80
22031;BME280;11179;52.106;21.024;2022-08-21T02:38:38;99970.81;;;19.19;66.16
22031;BME280;11179;52.106;21.024;2022-08-21T02:41:10;99977.03;;;19.16;66.21
22031;BME280;11179;52.106;21.024;2022-08-21T02:43:36;99974.72;;;19.18;66.23
22031;BME280;11179;52.106;21.024;2022-08-21T02:46:03;99969.81;;;19.15;66.19
22031;BME280;11179;52.106;21.024;2022-08-21T02:48:31;99971.13;;;19.09;66.38
22031;BME280;11179;52.106;21.024;2022-08-21T02:51:00;99972.44;;;19.03;66.43
22031;BME280;11179;52.106;21.024;2022-08-21T02:53:27;99973.06;;;18.99;66.47
22031;BME280;11179;52.106;21.024;2022-08-21T02:55:53;99971.25;;;18.95;66.68
22031;BME280;11179;52.106;21.024;2022-08-21T02:58:25;99965.38;;;18.96;67.25
22031;BME280;11179;52.106;21.024;2022-08-21T03:00:51;99966.19;;;18.97;67.28
22031;BME280;11179;52.106;21.024;2022-08-21T03:03:18;99962.25;;;18.98;67.30
22031;BME280;11179;52.106;21.024;2022-08-21T03:05:46;99961.25;;;18.94;67.04
22031;BME280;11179;52.106;21.024;2022-08-21T03:08:14;99964.22;;;18.89;67.11
22031;BME280;11179;52.106;21.024;2022-08-21T03:10:44;99959.59;;;18.84;67.14
22031;BME280;11179;52.106;21.024;2022-08-21T03:13:10;99957.16;;;18.83;67.23
22031;BME280;11179;52.106;21.024;2022-08-21T03:15:36;99956.16;;;18.79;67.21
22031;BME280;11179;52.106;21.024;2022-08-21T03:18:03;99965.31;;;18.79;67.50
22031;BME280;11179;52.106;21.024;2022-08-21T03:20:30;99954.19;;;18.79;67.42
22031;BME280;11179;52.106;21.024;2022-08-21T03:22:57;99955.19;;;18.83;67.35
22031;BME280;11179;52.106;21.024;2022-08-21T03:25:25;99957.97;;;18.83;67.60
22031;BME280;11179;52.106;21.024;2022-08-21T03:27:50;99953.03;;;18.80;67.63
22031;BME280;11179;52.106;21.024;2022-08-21T03:30:18;99949.94;;;18.73;67.91
22031;BME280;11179;52.106;21.024;2022-08-21T03:32:45;99953.50;;;18.65;67.82
22031;BME280;11179;52.106;21.024;2022-08-21T03:35:11;99951.53;;;18.66;67.76
22031;BME280;11179;52.106;21.024;2022-08-21T03:37:36;99951.06;;;18.63;67.80
22031;BME280;11179;52.106;21.024;2022-08-21T03:40:07;99949.88;;;18.64;67.80
22031;BME280;11179;52.106;21.024;2022-08-21T03:42:33;99944.31;;;18.64;67.70
22031;BME280;11179;52.106;21.024;2022-08-21T03:44:58;99956.13;;;18.70;67.75
22031;BME280;11179;52.106;21.024;2022-08-21T03:47:24;99959.91;;;18.74;67.66
22031;BME280;11179;52.106;21.024;2022-08-21T03:49:49;99951.56;;;18.74;67.71
22031;BME280;11179;52.106;21.024;2022-08-21T03:52:15;99960.06;;;18.78;67.74
22031;BME280;11179;52.106;21.024;2022-08-21T03:54:42;99946.34;;;18.81;67.62
22031;BME280;11179;52.106;21.024;2022-08-21T03:57:08;99950.25;;;18.80;67.79
22031;BME280;11179;52.106;21.024;2022-08-21T03:59:35;99950.75;;;18.82;68.02
22031;BME280;11179;52.106;21.024;2022-08-21T04:02:03;99960.44;;;18.85;68.10
22031;BME280;11179;52.106;21.024;2022-08-21T04:04:29;99960.59;;;18.88;67.82
22031;BME280;11179;52.106;21.024;2022-08-21T04:06:56;99967.97;;;18.93;68.04
22031;BME280;11179;52.106;21.024;2022-08-21T04:09:22;99966.19;;;18.97;68.14
22031;BME280;11179;52.106;21.024;2022-08-21T04:11:47;99955.25;;;19.01;67.96
22031;BME280;11179;52.106;21.024;2022-08-21T04:14:14;99963.13;;;19.16;67.53
22031;BME280;11179;52.106;21.024;2022-08-21T04:16:40;99959.72;;;19.27;67.26
22031;BME280;11179;52.106;21.024;2022-08-21T04:19:06;99964.63;;;19.39;67.35
22031;BME280;11179;52.106;21.024;2022-08-21T04:21:32;99961.88;;;19.56;67.27
22031;BME280;11179;52.106;21.024;2022-08-21T04:23:57;99960.88;;;19.69;66.85
22031;BME280;11179;52.106;21.024;2022-08-21T04:26:24;99953.81;;;19.81;66.76
22031;BME280;11179;52.106;21.024;2022-08-21T04:28:50;99948.38;;;19.93;66.16
22031;BME280;11179;52.106;21.024;2022-08-21T04:31:16;99948.72;;;20.00;65.77
22031;BME280;11179;52.106;21.024;2022-08-21T04:33:41;99949.19;;;20.02;65.89
22031;BME280;11179;52.106;21.024;2022-08-21T04:36:07;99953.91;;;20.19;65.42
22031;BME280;11179;52.106;21.024;2022-08-21T04:38:33;99949.78;;;20.33;64.98
22031;BME280;11179;52.106;21.024;2022-08-21T04:40:59;99961.16;;;20.58;64.75
22031;BME280;11179;52.106;21.024;2022-08-21T04:43:24;99956.47;;;20.79;64.22
22031;BME280;11179;52.106;21.024;2022-08-21T04:45:50;99960.31;;;20.95;63.28
22031;BME280;11179;52.106;21.024;2022-08-21T04:48:19;99957.81;;;21.02;63.13
22031;BME280;11179;52.106;21.024;2022-08-21T04:50:56;99954.16;;;21.10;62.58
22031;BME280;11179;52.106;21.024;2022-08-21T04:53:37;99952.75;;;21.25;62.08
22031;BME280;11179;52.106;21.024;2022-08-21T04:56:09;99960.44;;;21.49;61.59
22031;BME280;11179;52.106;21.024;2022-08-21T04:58:37;99963.84;;;21.75;60.97
22031;BME280;11179;52.106;21.024;2022-08-21T05:01:04;99961.25;;;22.03;60.06
22031;BME280;11179;52.106;21.024;2022-08-21T05:03:33;99958.44;;;22.24;59.64
22031;BME280;11179;52.106;21.024;2022-08-21T05:06:00;99961.63;;;22.35;59.04
22031;BME280;11179;52.106;21.024;2022-08-21T05:08:27;99972.09;;;22.38;58.55
22031;BME280;11179;52.106;21.024;2022-08-21T05:10:53;99971.19;;;22.46;58.17
22031;BME280;11179;52.106;21.024;2022-08-21T05:13:19;99977.59;;;22.46;58.01
22031;BME280;11179;52.106;21.024;2022-08-21T05:15:45;99968.25;;;22.42;57.44
22031;BME280;11179;52.106;21.024;2022-08-21T05:18:11;99966.91;;;22.73;57.41
22031;BME280;11179;52.106;21.024;2022-08-21T05:20:36;99960.13;;;22.86;57.23
22031;BME280;11179;52.106;21.024;2022-08-21T05:23:07;99954.41;;;22.82;56.58
22031;BME280;11179;52.106;21.024;2022-08-21T05:25:33;99959.88;;;23.28;56.41
22031;BME280;11179;52.106;21.024;2022-08-21T05:27:58;99963.97;;;23.70;55.68
22031;BME280;11179;52.106;21.024;2022-08-21T05:30:24;99961.16;;;23.98;55.01
22031;BME280;11179;52.106;21.024;2022-08-21T05:32:49;99954.03;;;24.01;54.40
22031;BME280;11179;52.106;21.024;2022-08-21T05:35:15;99961.72;;;24.04;53.64
22031;BME280;11179;52.106;21.024;2022-08-21T05:37:40;99963.72;;;23.75;53.91
22031;BME280;11179;52.106;21.024;2022-08-21T05:40:06;99965.53;;;23.55;54.39
22031;BME280;11179;52.106;21.024;2022-08-21T05:42:32;99967.34;;;23.76;53.83
22031;BME280;11179;52.106;21.024;2022-08-21T05:44:58;99970.53;;;24.18;53.57
22031;BME280;11179;52.106;21.024;2022-08-21T05:47:23;99954.84;;;24.60;53.03
22031;BME280;11179;52.106;21.024;2022-08-21T05:49:48;99961.97;;;24.89;52.35
22031;BME280;11179;52.106;21.024;2022-08-21T05:52:19;99968.16;;;24.95;51.82
22031;BME280;11179;52.106;21.024;2022-08-21T05:54:44;99966.38;;;25.22;51.55
22031;BME280;11179;52.106;21.024;2022-08-21T05:57:10;99968.78;;;25.39;51.02
22031;BME280;11179;52.106;21.024;2022-08-21T05:59:35;99964.25;;;25.35;50.67
22031;BME280;11179;52.106;21.024;2022-08-21T06:02:01;99966.81;;;25.24;50.89
22031;BME280;11179;52.106;21.024;2022-08-21T06:04:27;99962.16;;;25.31;50.42
22031;BME280;11179;52.106;21.024;2022-08-21T06:06:52;99965.91;;;25.20;50.69
22031;BME280;11179;52.106;21.024;2022-08-21T06:09:18;99961.56;;;25.22;50.67
22031;BME280;11179;52.106;21.024;2022-08-21T06:11:43;99956.63;;;25.16;50.66
22031;BME280;11179;52.106;21.024;2022-08-21T06:14:08;99965.75;;;25.13;50.54
22031;BME280;11179;52.106;21.024;2022-08-21T06:16:34;99960.16;;;25.13;50.67
22031;BME280;11179;52.106;21.024;2022-08-21T06:18:59;99962.31;;;25.04;50.19
22031;BME280;11179;52.106;21.024;2022-08-21T06:21:25;99962.97;;;24.97;50.44
22031;BME280;11179;52.106;21.024;2022-08-21T06:23:50;99972.44;;;25.24;50.38
22031;BME280;11179;52.106;21.024;2022-08-21T06:26:16;99965.66;;;25.44;50.37
22031;BME280;11179;52.106;21.024;2022-08-21T06:28:42;99970.53;;;25.47;49.77
22031;BME280;11179;52.106;21.024;2022-08-21T06:31:19;99967.22;;;25.07;50.21
22031;BME280;11179;52.106;21.024;2022-08-21T06:33:45;99974.50;;;24.60;51.07
22031;BME280;11179;52.106;21.024;2022-08-21T06:36:11;99976.56;;;24.32;51.98
22031;BME280;11179;52.106;21.024;2022-08-21T06:38:37;99983.16;;;24.12;52.64
22031;BME280;11179;52.106;21.024;2022-08-21T06:41:03;99986.09;;;23.87;53.10
22031;BME280;11179;52.106;21.024;2022-08-21T06:43:29;99992.16;;;23.89;53.55
22031;BME280;11179;52.106;21.024;2022-08-21T06:45:55;99986.53;;;24.17;53.12
22031;BME280;11179;52.106;21.024;2022-08-21T06:48:20;99986.63;;;24.49;52.77
22031;BME280;11179;52.106;21.024;2022-08-21T06:50:46;99990.53;;;24.76;52.52
22031;BME280;11179;52.106;21.024;2022-08-21T06:53:14;99990.34;;;25.00;52.14
22031;BME280;11179;52.106;21.024;2022-08-21T06:55:40;99991.50;;;25.50;51.42
22031;BME280;11179;52.106;21.024;2022-08-21T06:58:05;99994.13;;;25.97;50.31
22031;BME280;11179;52.106;21.024;2022-08-21T07:00:31;99996.69;;;26.44;49.76
22031;BME280;11179;52.106;21.024;2022-08-21T07:02:57;99996.50;;;26.79;49.35
22031;BME280;11179;52.106;21.024;2022-08-21T07:05:26;99999.41;;;27.09;48.35
22031;BME280;11179;52.106;21.024;2022-08-21T07:07:52;99987.53;;;27.23;47.11
22031;BME280;11179;52.106;21.024;2022-08-21T07:10:17;99986.22;;;27.39;46.70
22031;BME280;11179;52.106;21.024;2022-08-21T07:12:43;99986.19;;;27.66;46.42
22031;BME280;11179;52.106;21.024;2022-08-21T07:15:09;99990.28;;;27.72;45.84
22031;BME280;11179;52.106;21.024;2022-08-21T07:17:34;99987.19;;;28.14;46.14
22031;BME280;11179;52.106;21.024;2022-08-21T07:19:59;99989.31;;;28.61;45.13
22031;BME280;11179;52.106;21.024;2022-08-21T07:22:25;99976.72;;;28.99;44.81
22031;BME280;11179;52.106;21.024;2022-08-21T07:24:53;99989.03;;;28.73;43.36
22031;BME280;11179;52.106;21.024;2022-08-21T07:27:18;99974.00;;;28.66;44.00
22031;BME280;11179;52.106;21.024;2022-08-21T07:29:44;99974.78;;;28.59;43.43
22031;BME280;11179;52.106;21.024;2022-08-21T07:32:09;99969.31;;;28.40;43.69
22031;BME280;11179;52.106;21.024;2022-08-21T07:34:34;99955.13;;;28.73;43.44
22031;BME280;11179;52.106;21.024;2022-08-21T07:37:00;99969.97;;;29.11;42.97
22031;BME280;11179;52.106;21.024;2022-08-21T07:39:25;99968.66;;;29.05;42.62
22031;BME280;11179;52.106;21.024;2022-08-21T07:41:50;99961.19;;;29.27;42.61
22031;BME280;11179;52.106;21.024;2022-08-21T07:44:16;99964.22;;;29.00;42.23
22031;BME280;11179;52.106;21.024;2022-08-21T07:46:41;99965.16;;;29.18;42.29
22031;BME280;11179;52.106;21.024;2022-08-21T07:49:07;99961.19;;;29.27;42.37
22031;BME280;11179;52.106;21.024;2022-08-21T07:51:33;99954.38;;;29.38;42.19
22031;BME280;11179;52.106;21.024;2022-08-21T07:53:59;99949.56;;;29.46;41.98
22031;BME280;11179;52.106;21.024;2022-08-21T07:56:26;99952.78;;;29.44;42.17
22031;BME280;11179;52.106;21.024;2022-08-21T07:58:51;99956.50;;;29.56;41.70
22031;BME280;11179;52.106;21.024;2022-08-21T08:01:17;99958.38;;;29.30;42.08
22031;BME280;11179;52.106;21.024;2022-08-21T08:03:43;99949.47;;;29.25;41.94
22031;BME280;11179;52.106;21.024;2022-08-21T08:06:10;99945.59;;;29.54;41.44
22031;BME280;11179;52.106;21.024;2022-08-21T08:08:38;99939.22;;;29.75;41.41
22031;BME280;11179;52.106;21.024;2022-08-21T08:11:04;99950.59;;;29.82;41.13
22031;BME280;11179;52.106;21.024;2022-08-21T08:13:30;99933.63;;;29.89;40.90
22031;BME280;11179;52.106;21.024;2022-08-21T08:15:55;99939.28;;;29.96;41.03
22031;BME280;11179;52.106;21.024;2022-08-21T08:18:21;99944.53;;;29.91;41.04
22031;BME280;11179;52.106;21.024;2022-08-21T08:20:46;99940.94;;;30.11;41.09
22031;BME280;11179;52.106;21.024;2022-08-21T08:23:13;99931.94;;;29.74;40.24
22031;BME280;11179;52.106;21.024;2022-08-21T08:25:39;99936.47;;;29.93;40.40
22031;BME280;11179;52.106;21.024;2022-08-21T08:28:05;99933.34;;;30.40;40.30
22031;BME280;11179;52.106;21.024;2022-08-21T08:30:32;99939.81;;;30.44;39.87
22031;BME280;11179;52.106;21.024;2022-08-21T08:32:57;99932.13;;;30.38;39.85
22031;BME280;11179;52.106;21.024;2022-08-21T08:35:25;99939.81;;;30.44;39.74
22031;BME280;11179;52.106;21.024;2022-08-21T08:37:51;99939.41;;;30.46;39.61
22031;BME280;11179;52.106;21.024;2022-08-21T08:40:30;99931.28;;;30.27;39.34
22031;BME280;11179;52.106;21.024;2022-08-21T08:42:58;99927.19;;;30.10;39.69
22031;BME280;11179;52.106;21.024;2022-08-21T08:45:25;99934.94;;;30.20;39.34
22031;BME280;11179;52.106;21.024;2022-08-21T08:47:58;99928.00;;;30.03;39.68
22031;BME280;11179;52.106;21.024;2022-08-21T08:50:44;99932.53;;;30.33;39.82
22031;BME280;11179;52.106;21.024;2022-08-21T08:53:27;99935.75;;;30.63;39.55
22031;BME280;11179;52.106;21.024;2022-08-21T08:55:55;99940.22;;;30.50;39.39
22031;BME280;11179;52.106;21.024;2022-08-21T08:58:28;99933.66;;;30.03;39.60
22031;BME280;11179;52.106;21.024;2022-08-21T09:00:57;99938.19;;;30.36;39.39
22031;BME280;11179;52.106;21.024;2022-08-21T09:03:23;99925.69;;;30.80;38.80
22031;BME280;11179;52.106;21.024;2022-08-21T09:11:27;99926.84;;;30.40;38.74
22031;BME280;11179;52.106;21.024;2022-08-21T09:19:28;99923.06;;;31.60;37.31
22031;BME280;11179;52.106;21.024;2022-08-21T09:22:09;99927.97;;;31.52;37.13
22031;BME280;11179;52.106;21.024;2022-08-21T09:24:50;99924.84;;;30.69;37.79
22031;BME280;11179;52.106;21.024;2022-08-21T09:27:20;99930.94;;;30.60;38.09
22031;BME280;11179;52.106;21.024;2022-08-21T09:29:50;99928.81;;;30.14;38.18
22031;BME280;11179;52.106;21.024;2022-08-21T09:32:18;99932.34;;;29.76;38.88
22031;BME280;11179;52.106;21.024;2022-08-21T09:37:27;99926.88;;;29.28;39.30
22031;BME280;11179;52.106;21.024;2022-08-21T09:39:54;99918.78;;;29.30;39.29
22031;BME280;11179;52.106;21.024;2022-08-21T09:42:28;99922.53;;;29.52;39.03
22031;BME280;11179;52.106;21.024;2022-08-21T09:45:10;99910.19;;;29.92;38.52
22031;BME280;11179;52.106;21.024;2022-08-21T09:47:36;99921.91;;;30.01;38.66
22031;BME280;11179;52.106;21.024;2022-08-21T09:50:21;99922.63;;;29.73;38.84
22031;BME280;11179;52.106;21.024;2022-08-21T09:52:50;99916.72;;;29.24;39.41
22031;BME280;11179;52.106;21.024;2022-08-21T09:55:21;99906.31;;;28.80;40.14
22031;BME280;11179;52.106;21.024;2022-08-21T09:58:06;99906.47;;;28.98;39.55
22031;BME280;11179;52.106;21.024;2022-08-21T10:00:34;99896.16;;;29.27;39.41
22031;BME280;11179;52.106;21.024;2022-08-21T10:06:19;99894.97;;;29.28;39.41
22031;BME280;11179;52.106;21.024;2022-08-21T10:08:42;99902.84;;;29.04;39.44
22031;BME280;11179;52.106;21.024;2022-08-21T10:11:13;99892.88;;;29.14;39.76
22031;BME280;11179;52.106;21.024;2022-08-21T10:13:47;99901.06;;;29.44;39.10
22031;BME280;11179;52.106;21.024;2022-08-21T10:24:31;99902.81;;;29.70;38.92
22031;BME280;11179;52.106;21.024;2022-08-21T10:27:39;99903.25;;;29.68;39.02
22031;BME280;11179;52.106;21.024;2022-08-21T10:30:17;99894.22;;;29.41;39.17
22031;BME280;11179;52.106;21.024;2022-08-21T10:35:23;99892.16;;;29.35;39.00
22031;BME280;11179;52.106;21.024;2022-08-21T10:38:00;99892.13;;;29.28;39.17
22031;BME280;11179;52.106;21.024;2022-08-21T10:40:38;99893.16;;;29.02;39.38
22031;BME280;11179;52.106;21.024;2022-08-21T10:48:54;99897.91;;;29.60;38.58
22031;BME280;11179;52.106;21.024;2022-08-21T10:51:52;99896.09;;;30.28;37.37
22031;BME280;11179;52.106;21.024;2022-08-21T10:54:30;99895.69;;;30.29;37.14
22031;BME280;11179;52.106;21.024;2022-08-21T10:57:11;99890.84;;;30.22;36.48
22031;BME280;11179;52.106;21.024;2022-08-21T10:59:47;99891.53;;;29.84;37.20
22031;BME280;11179;52.106;21.024;2022-08-21T11:02:27;99889.31;;;29.35;37.42
22031;BME280;11179;52.106;21.024;2022-08-21T11:05:20;99884.84;;;28.68;38.76
22031;BME280;11179;52.106;21.024;2022-08-21T11:08:02;99877.97;;;28.66;38.89
22031;BME280;11179;52.106;21.024;2022-08-21T11:10:35;99876.63;;;28.49;39.02
22031;BME280;11179;52.106;21.024;2022-08-21T11:13:05;99877.75;;;28.41;39.14
22031;BME280;11179;52.106;21.024;2022-08-21T11:15:52;99866.16;;;28.53;39.40
22031;BME280;11179;52.106;21.024;2022-08-21T11:18:36;99862.03;;;28.95;38.82
22031;BME280;11179;52.106;21.024;2022-08-21T11:23:42;99879.25;;;29.44;38.32
22031;BME280;11179;52.106;21.024;2022-08-21T11:26:21;99859.13;;;29.64;38.14
22031;BME280;11179;52.106;21.024;2022-08-21T11:28:54;99866.88;;;29.77;37.45
22031;BME280;11179;52.106;21.024;2022-08-21T11:34:07;99869.56;;;29.45;38.21
22031;BME280;11179;52.106;21.024;2022-08-21T11:39:48;99866.88;;;29.74;37.88
22031;BME280;11179;52.106;21.024;2022-08-21T11:44:54;99865.00;;;29.16;38.01
22031;BME280;11179;52.106;21.024;2022-08-21T11:47:54;99875.69;;;28.86;38.38
22031;BME280;11179;52.106;21.024;2022-08-21T11:50:27;99874.00;;;28.77;38.60
22031;BME280;11179;52.106;21.024;2022-08-21T11:55:46;99872.41;;;28.76;39.19
22031;BME280;11179;52.106;21.024;2022-08-21T11:58:21;99864.50;;;29.07;38.74
22031;BME280;11179;52.106;21.024;2022-08-21T12:00:55;99871.91;;;29.26;38.39
22031;BME280;11179;52.106;21.024;2022-08-21T12:03:31;99867.34;;;29.07;37.93
22031;BME280;11179;52.106;21.024;2022-08-21T12:06:01;99871.66;;;28.83;38.60
22031;BME280;11179;52.106;21.024;2022-08-21T12:08:36;99862.81;;;28.92;39.23
22031;BME280;11179;52.106;21.024;2022-08-21T12:19:04;99862.41;;;28.38;40.62
22031;BME280;11179;52.106;21.024;2022-08-21T12:21:30;99855.03;;;28.27;40.57
22031;BME280;11179;52.106;21.024;2022-08-21T12:26:52;99865.69;;;28.44;40.75
22031;BME280;11179;52.106;21.024;2022-08-21T12:29:35;99868.53;;;28.51;40.61
22031;BME280;11179;52.106;21.024;2022-08-21T12:32:19;99864.69;;;28.22;40.36
22031;BME280;11179;52.106;21.024;2022-08-21T12:34:51;99867.59;;;27.92;40.88
22031;BME280;11179;52.106;21.024;2022-08-21T12:40:20;99879.06;;;28.06;40.08
22031;BME280;11179;52.106;21.024;2022-08-21T12:42:50;99866.88;;;27.99;39.83
22031;BME280;11179;52.106;21.024;2022-08-21T12:45:20;99872.91;;;27.97;40.03
22031;BME280;11179;52.106;21.024;2022-08-21T12:47:52;99860.22;;;28.18;40.25
22031;BME280;11179;52.106;21.024;2022-08-21T12:55:41;99861.47;;;28.24;39.61
22031;BME280;11179;52.106;21.024;2022-08-21T12:58:06;99859.22;;;28.43;39.85
22031;BME280;11179;52.106;21.024;2022-08-21T13:00:48;99850.13;;;28.61;39.54
22031;BME280;11179;52.106;21.024;2022-08-21T13:03:14;99849.34;;;28.67;39.05
22031;BME280;11179;52.106;21.024;2022-08-21T13:05:40;99846.59;;;28.81;39.17
22031;BME280;11179;52.106;21.024;2022-08-21T13:08:07;99845.03;;;28.88;39.12
22031;BME280;11179;52.106;21.024;2022-08-21T13:10:35;99850.63;;;28.80;39.66
22031;BME280;11179;52.106;21.024;2022-08-21T13:13:06;99852.16;;;28.67;39.34
22031;BME280;11179;52.106;21.024;2022-08-21T13:15:35;99856.97;;;28.60;39.53
22031;BME280;11179;52.106;21.024;2022-08-21T13:18:04;99858.38;;;28.39;40.31
22031;BME280;11179;52.106;21.024;2022-08-21T13:20:38;99860.66;;;28.23;40.60
22031;BME280;11179;52.106;21.024;2022-08-21T13:23:19;99864.47;;;28.01;41.04
22031;BME280;11179;52.106;21.024;2022-08-21T13:25:45;99862.09;;;27.66;41.25
22031;BME280;11179;52.106;21.024;2022-08-21T13:28:12;99861.09;;;27.51;41.60
22031;BME280;11179;52.106;21.024;2022-08-21T13:30:45;99857.91;;;27.53;41.98
22031;BME280;11179;52.106;21.024;2022-08-21T13:33:14;99853.59;;;27.32;41.94
22031;BME280;11179;52.106;21.024;2022-08-21T13:38:25;99863.78;;;27.11;42.54
22031;BME280;11179;52.106;21.024;2022-08-21T13:41:24;99856.59;;;27.17;42.51
22031;BME280;11179;52.106;21.024;2022-08-21T13:43:58;99858.09;;;27.37;42.16
22031;BME280;11179;52.106;21.024;2022-08-21T13:46:27;99859.16;;;27.25;42.11
22031;BME280;11179;52.106;21.024;2022-08-21T13:48:54;99850.44;;;27.07;42.62
22031;BME280;11179;52.106;21.024;2022-08-21T13:51:21;99853.28;;;27.07;42.80
22031;BME280;11179;52.106;21.024;2022-08-21T13:53:49;99853.38;;;27.15;42.33
22031;BME280;11179;52.106;21.024;2022-08-21T13:56:26;99851.19;;;27.01;42.55
22031;BME280;11179;52.106;21.024;2022-08-21T13:58:52;99852.13;;;27.12;42.65
22031;BME280;11179;52.106;21.024;2022-08-21T14:03:55;99850.38;;;27.34;42.38
22031;BME280;11179;52.106;21.024;2022-08-21T14:06:27;99862.84;;;27.29;42.59
22031;BME280;11179;52.106;21.024;2022-08-21T14:08:53;99858.41;;;27.32;42.69